Terminal Aerodrome Forecast
Issued by NWS Sioux Falls, SD

Home | Current Version | Previous Version | Graphics & Text | Print | Product List | Glossary On
Versions: 1 2 3 4 5 6 7 8 9 10 11 12 13
000
FTUS43 KFSD 010520
TAFFSD
TAF
KFSD 010520Z 0106/0206 22003KT P6SM SKC
     FM011500 18007KT P6SM SCT120
     FM011800 20012KT P6SM SCT080
     FM012000 22012G18KT P6SM SCT050 PROB30 0122/0124 6SM -TSRA
      BKN040CB
     FM020100 19011KT P6SM SCT100=

USA.gov is the U.S. government's official web portal to all federal, state and local government web resources and services.